sensor_id;sensor_type;location;lat;lon;timestamp;P1;durP1;ratioP1;P2;durP2;ratioP2
43325;SDS011;28920;59.862;30.636;2023-03-31T00:00:31;28.55;;;15.68;;
43325;SDS011;28920;59.862;30.636;2023-03-31T00:02:58;27.50;;;14.73;;
43325;SDS011;28920;59.862;30.636;2023-03-31T00:05:24;26.25;;;14.95;;
43325;SDS011;28920;59.862;30.636;2023-03-31T00:07:52;24.95;;;13.82;;
43325;SDS011;28920;59.862;30.636;2023-03-31T00:10:19;29.58;;;15.00;;
43325;SDS011;28920;59.862;30.636;2023-03-31T00:12:47;32.38;;;15.80;;
43325;SDS011;28920;59.862;30.636;2023-03-31T00:15:14;27.27;;;15.38;;
43325;SDS011;28920;59.862;30.636;2023-03-31T00:17:41;28.73;;;14.60;;
43325;SDS011;28920;59.862;30.636;2023-03-31T00:20:08;26.17;;;13.57;;
43325;SDS011;28920;59.862;30.636;2023-03-31T00:22:37;29.73;;;14.82;;
43325;SDS011;28920;59.862;30.636;2023-03-31T00:25:04;30.40;;;15.52;;
43325;SDS011;28920;59.862;30.636;2023-03-31T00:27:31;28.10;;;15.48;;
43325;SDS011;28920;59.862;30.636;2023-03-31T00:29:58;29.40;;;15.90;;
43325;SDS011;28920;59.862;30.636;2023-03-31T00:32:25;29.60;;;16.20;;
43325;SDS011;28920;59.862;30.636;2023-03-31T00:34:52;27.62;;;15.15;;
43325;SDS011;28920;59.862;30.636;2023-03-31T00:37:18;29.65;;;17.10;;
43325;SDS011;28920;59.862;30.636;2023-03-31T00:39:45;30.58;;;14.68;;
43325;SDS011;28920;59.862;30.636;2023-03-31T00:42:12;27.70;;;14.98;;
43325;SDS011;28920;59.862;30.636;2023-03-31T00:44:38;27.45;;;15.93;;
43325;SDS011;28920;59.862;30.636;2023-03-31T00:47:26;26.98;;;13.80;;
43325;SDS011;28920;59.862;30.636;2023-03-31T00:49:54;26.80;;;15.82;;
43325;SDS011;28920;59.862;30.636;2023-03-31T00:52:22;32.15;;;17.92;;
43325;SDS011;28920;59.862;30.636;2023-03-31T00:54:52;29.58;;;15.93;;
43325;SDS011;28920;59.862;30.636;2023-03-31T00:57:19;31.33;;;16.30;;
43325;SDS011;28920;59.862;30.636;2023-03-31T00:59:46;27.67;;;15.00;;
43325;SDS011;28920;59.862;30.636;2023-03-31T01:02:14;33.05;;;18.05;;
43325;SDS011;28920;59.862;30.636;2023-03-31T01:04:43;30.05;;;16.33;;
43325;SDS011;28920;59.862;30.636;2023-03-31T01:07:13;39.08;;;17.23;;
43325;SDS011;28920;59.862;30.636;2023-03-31T01:09:42;29.05;;;15.43;;
43325;SDS011;28920;59.862;30.636;2023-03-31T01:12:14;32.28;;;15.48;;
43325;SDS011;28920;59.862;30.636;2023-03-31T01:14:41;27.40;;;15.70;;
43325;SDS011;28920;59.862;30.636;2023-03-31T01:17:08;28.52;;;15.57;;
43325;SDS011;28920;59.862;30.636;2023-03-31T01:19:39;26.23;;;15.45;;
43325;SDS011;28920;59.862;30.636;2023-03-31T01:25:10;31.30;;;15.38;;
43325;SDS011;28920;59.862;30.636;2023-03-31T01:27:42;28.23;;;14.35;;
43325;SDS011;28920;59.862;30.636;2023-03-31T01:30:17;29.27;;;16.23;;
43325;SDS011;28920;59.862;30.636;2023-03-31T01:35:47;27.95;;;15.13;;
43325;SDS011;28920;59.862;30.636;2023-03-31T01:41:16;29.55;;;14.32;;
43325;SDS011;28920;59.862;30.636;2023-03-31T01:43:46;27.27;;;13.07;;
43325;SDS011;28920;59.862;30.636;2023-03-31T01:46:20;27.67;;;14.98;;
43325;SDS011;28920;59.862;30.636;2023-03-31T01:48:51;25.92;;;13.88;;
43325;SDS011;28920;59.862;30.636;2023-03-31T01:51:21;25.80;;;15.32;;
43325;SDS011;28920;59.862;30.636;2023-03-31T01:53:50;32.47;;;15.40;;
43325;SDS011;28920;59.862;30.636;2023-03-31T01:56:21;26.98;;;14.10;;
43325;SDS011;28920;59.862;30.636;2023-03-31T01:58:51;28.38;;;14.43;;
43325;SDS011;28920;59.862;30.636;2023-03-31T02:01:20;26.85;;;13.50;;
43325;SDS011;28920;59.862;30.636;2023-03-31T02:03:52;25.70;;;13.20;;
43325;SDS011;28920;59.862;30.636;2023-03-31T02:06:20;26.20;;;13.55;;
43325;SDS011;28920;59.862;30.636;2023-03-31T02:08:50;24.63;;;13.25;;
43325;SDS011;28920;59.862;30.636;2023-03-31T02:11:18;31.12;;;14.93;;
43325;SDS011;28920;59.862;30.636;2023-03-31T02:13:46;32.92;;;15.45;;
43325;SDS011;28920;59.862;30.636;2023-03-31T02:16:15;30.65;;;15.70;;
43325;SDS011;28920;59.862;30.636;2023-03-31T02:18:44;25.62;;;13.88;;
43325;SDS011;28920;59.862;30.636;2023-03-31T02:21:13;28.25;;;13.52;;
43325;SDS011;28920;59.862;30.636;2023-03-31T02:23:42;31.25;;;15.00;;
43325;SDS011;28920;59.862;30.636;2023-03-31T02:26:11;24.75;;;12.93;;
43325;SDS011;28920;59.862;30.636;2023-03-31T02:28:39;24.85;;;13.15;;
43325;SDS011;28920;59.862;30.636;2023-03-31T02:31:08;33.42;;;15.90;;
43325;SDS011;28920;59.862;30.636;2023-03-31T02:33:40;27.58;;;13.75;;
43325;SDS011;28920;59.862;30.636;2023-03-31T02:36:06;25.15;;;12.52;;
43325;SDS011;28920;59.862;30.636;2023-03-31T02:38:34;27.55;;;12.73;;
43325;SDS011;28920;59.862;30.636;2023-03-31T02:41:04;27.35;;;14.25;;
43325;SDS011;28920;59.862;30.636;2023-03-31T02:43:31;29.02;;;13.95;;
43325;SDS011;28920;59.862;30.636;2023-03-31T02:45:58;26.62;;;14.25;;
43325;SDS011;28920;59.862;30.636;2023-03-31T02:48:26;29.67;;;15.15;;
43325;SDS011;28920;59.862;30.636;2023-03-31T02:53:38;29.10;;;15.32;;
43325;SDS011;28920;59.862;30.636;2023-03-31T02:56:12;26.90;;;14.10;;
43325;SDS011;28920;59.862;30.636;2023-03-31T02:58:55;27.48;;;13.65;;
43325;SDS011;28920;59.862;30.636;2023-03-31T03:01:31;29.87;;;14.38;;
43325;SDS011;28920;59.862;30.636;2023-03-31T03:04:04;25.12;;;13.68;;
43325;SDS011;28920;59.862;30.636;2023-03-31T03:06:36;25.35;;;13.60;;
43325;SDS011;28920;59.862;30.636;2023-03-31T03:09:07;23.08;;;12.90;;
43325;SDS011;28920;59.862;30.636;2023-03-31T03:11:38;29.27;;;15.38;;
43325;SDS011;28920;59.862;30.636;2023-03-31T03:14:12;25.15;;;13.50;;
43325;SDS011;28920;59.862;30.636;2023-03-31T03:16:41;25.02;;;13.27;;
43325;SDS011;28920;59.862;30.636;2023-03-31T03:19:09;27.05;;;13.32;;
43325;SDS011;28920;59.862;30.636;2023-03-31T03:21:43;27.45;;;14.10;;
43325;SDS011;28920;59.862;30.636;2023-03-31T03:24:10;27.98;;;14.75;;
43325;SDS011;28920;59.862;30.636;2023-03-31T03:26:37;28.15;;;14.30;;
43325;SDS011;28920;59.862;30.636;2023-03-31T03:29:05;29.00;;;13.88;;
43325;SDS011;28920;59.862;30.636;2023-03-31T03:31:31;24.05;;;13.25;;
43325;SDS011;28920;59.862;30.636;2023-03-31T03:33:59;24.70;;;13.35;;
43325;SDS011;28920;59.862;30.636;2023-03-31T03:36:27;30.15;;;14.90;;
43325;SDS011;28920;59.862;30.636;2023-03-31T03:38:54;29.40;;;15.70;;
43325;SDS011;28920;59.862;30.636;2023-03-31T03:41:20;30.05;;;16.40;;
43325;SDS011;28920;59.862;30.636;2023-03-31T03:43:47;28.48;;;14.30;;
43325;SDS011;28920;59.862;30.636;2023-03-31T03:46:14;26.92;;;14.32;;
43325;SDS011;28920;59.862;30.636;2023-03-31T03:48:40;25.25;;;13.10;;
43325;SDS011;28920;59.862;30.636;2023-03-31T03:51:07;24.58;;;12.73;;
43325;SDS011;28920;59.862;30.636;2023-03-31T03:53:34;22.65;;;11.20;;
43325;SDS011;28920;59.862;30.636;2023-03-31T03:56:01;23.17;;;12.57;;
43325;SDS011;28920;59.862;30.636;2023-03-31T03:58:28;25.77;;;12.07;;
43325;SDS011;28920;59.862;30.636;2023-03-31T04:00:54;23.62;;;12.68;;
43325;SDS011;28920;59.862;30.636;2023-03-31T04:03:22;22.17;;;11.82;;
43325;SDS011;28920;59.862;30.636;2023-03-31T04:05:49;21.12;;;11.82;;
43325;SDS011;28920;59.862;30.636;2023-03-31T04:08:15;24.77;;;12.93;;
43325;SDS011;28920;59.862;30.636;2023-03-31T04:10:44;21.67;;;11.40;;
43325;SDS011;28920;59.862;30.636;2023-03-31T04:13:11;21.55;;;11.60;;
43325;SDS011;28920;59.862;30.636;2023-03-31T04:15:37;22.37;;;11.43;;
43325;SDS011;28920;59.862;30.636;2023-03-31T04:18:04;20.75;;;11.27;;
43325;SDS011;28920;59.862;30.636;2023-03-31T04:20:31;21.50;;;10.35;;
43325;SDS011;28920;59.862;30.636;2023-03-31T04:22:57;23.65;;;12.50;;
43325;SDS011;28920;59.862;30.636;2023-03-31T04:25:24;21.42;;;10.93;;
43325;SDS011;28920;59.862;30.636;2023-03-31T04:27:51;20.95;;;10.95;;
43325;SDS011;28920;59.862;30.636;2023-03-31T04:30:20;21.17;;;11.45;;
43325;SDS011;28920;59.862;30.636;2023-03-31T04:32:50;22.35;;;11.80;;
43325;SDS011;28920;59.862;30.636;2023-03-31T04:35:16;25.02;;;13.75;;
43325;SDS011;28920;59.862;30.636;2023-03-31T04:37:43;24.85;;;14.20;;
43325;SDS011;28920;59.862;30.636;2023-03-31T04:40:10;28.50;;;12.70;;
43325;SDS011;28920;59.862;30.636;2023-03-31T04:42:37;20.62;;;10.23;;
43325;SDS011;28920;59.862;30.636;2023-03-31T04:45:05;22.80;;;11.93;;
43325;SDS011;28920;59.862;30.636;2023-03-31T04:47:32;24.98;;;12.07;;
43325;SDS011;28920;59.862;30.636;2023-03-31T04:49:59;19.35;;;10.90;;
43325;SDS011;28920;59.862;30.636;2023-03-31T04:52:25;24.90;;;11.35;;
43325;SDS011;28920;59.862;30.636;2023-03-31T04:54:52;21.90;;;12.07;;
43325;SDS011;28920;59.862;30.636;2023-03-31T04:57:19;22.35;;;11.15;;
43325;SDS011;28920;59.862;30.636;2023-03-31T04:59:46;22.08;;;10.70;;
43325;SDS011;28920;59.862;30.636;2023-03-31T05:02:13;21.37;;;10.35;;
43325;SDS011;28920;59.862;30.636;2023-03-31T05:04:46;21.42;;;11.77;;
43325;SDS011;28920;59.862;30.636;2023-03-31T05:07:13;19.52;;;10.35;;
43325;SDS011;28920;59.862;30.636;2023-03-31T05:09:40;23.65;;;12.43;;
43325;SDS011;28920;59.862;30.636;2023-03-31T05:12:06;21.65;;;10.60;;
43325;SDS011;28920;59.862;30.636;2023-03-31T05:14:33;23.15;;;12.30;;
43325;SDS011;28920;59.862;30.636;2023-03-31T05:17:00;20.55;;;12.52;;
43325;SDS011;28920;59.862;30.636;2023-03-31T05:19:28;21.65;;;11.35;;
43325;SDS011;28920;59.862;30.636;2023-03-31T05:21:55;23.27;;;14.20;;
43325;SDS011;28920;59.862;30.636;2023-03-31T05:24:21;20.02;;;11.73;;
43325;SDS011;28920;59.862;30.636;2023-03-31T05:26:48;22.85;;;11.90;;
43325;SDS011;28920;59.862;30.636;2023-03-31T05:29:17;20.10;;;11.02;;
43325;SDS011;28920;59.862;30.636;2023-03-31T05:31:44;20.80;;;10.68;;
43325;SDS011;28920;59.862;30.636;2023-03-31T05:34:10;19.80;;;11.43;;
43325;SDS011;28920;59.862;30.636;2023-03-31T05:36:38;20.00;;;11.77;;
43325;SDS011;28920;59.862;30.636;2023-03-31T05:39:05;19.00;;;10.65;;
43325;SDS011;28920;59.862;30.636;2023-03-31T05:41:31;21.83;;;10.70;;
43325;SDS011;28920;59.862;30.636;2023-03-31T05:43:58;22.87;;;12.02;;
43325;SDS011;28920;59.862;30.636;2023-03-31T05:46:26;24.02;;;11.20;;
43325;SDS011;28920;59.862;30.636;2023-03-31T05:48:53;20.65;;;10.35;;
43325;SDS011;28920;59.862;30.636;2023-03-31T05:51:20;22.60;;;11.48;;
43325;SDS011;28920;59.862;30.636;2023-03-31T05:53:47;20.67;;;12.25;;
43325;SDS011;28920;59.862;30.636;2023-03-31T05:56:14;23.60;;;12.60;;
43325;SDS011;28920;59.862;30.636;2023-03-31T05:58:40;20.80;;;11.45;;
43325;SDS011;28920;59.862;30.636;2023-03-31T06:01:08;19.67;;;11.10;;
43325;SDS011;28920;59.862;30.636;2023-03-31T06:03:35;22.98;;;12.05;;
43325;SDS011;28920;59.862;30.636;2023-03-31T06:06:03;24.45;;;11.30;;
43325;SDS011;28920;59.862;30.636;2023-03-31T06:08:30;23.52;;;11.88;;
43325;SDS011;28920;59.862;30.636;2023-03-31T06:10:57;26.85;;;13.93;;
43325;SDS011;28920;59.862;30.636;2023-03-31T06:13:24;23.77;;;11.90;;
43325;SDS011;28920;59.862;30.636;2023-03-31T06:15:52;20.42;;;10.25;;
43325;SDS011;28920;59.862;30.636;2023-03-31T06:18:18;19.80;;;10.65;;
43325;SDS011;28920;59.862;30.636;2023-03-31T06:20:45;20.02;;;10.45;;
43325;SDS011;28920;59.862;30.636;2023-03-31T06:23:11;24.17;;;11.23;;
43325;SDS011;28920;59.862;30.636;2023-03-31T06:25:38;21.58;;;12.35;;
43325;SDS011;28920;59.862;30.636;2023-03-31T06:28:06;17.65;;;10.40;;
43325;SDS011;28920;59.862;30.636;2023-03-31T06:30:33;19.12;;;11.52;;
43325;SDS011;28920;59.862;30.636;2023-03-31T06:33:00;22.83;;;11.65;;
43325;SDS011;28920;59.862;30.636;2023-03-31T06:35:27;22.15;;;12.05;;
43325;SDS011;28920;59.862;30.636;2023-03-31T06:37:54;17.33;;;9.60;;
43325;SDS011;28920;59.862;30.636;2023-03-31T06:40:20;17.58;;;9.82;;
43325;SDS011;28920;59.862;30.636;2023-03-31T06:42:47;19.45;;;10.75;;
43325;SDS011;28920;59.862;30.636;2023-03-31T06:45:16;16.02;;;9.23;;
43325;SDS011;28920;59.862;30.636;2023-03-31T06:47:43;17.10;;;9.75;;
43325;SDS011;28920;59.862;30.636;2023-03-31T06:50:09;17.40;;;9.80;;
43325;SDS011;28920;59.862;30.636;2023-03-31T06:52:36;17.80;;;9.27;;
43325;SDS011;28920;59.862;30.636;2023-03-31T06:55:04;19.73;;;9.90;;
43325;SDS011;28920;59.862;30.636;2023-03-31T06:57:30;15.43;;;10.70;;
43325;SDS011;28920;59.862;30.636;2023-03-31T06:59:58;17.83;;;10.48;;
43325;SDS011;28920;59.862;30.636;2023-03-31T07:02:26;14.70;;;9.80;;
43325;SDS011;28920;59.862;30.636;2023-03-31T07:04:53;15.70;;;8.65;;
43325;SDS011;28920;59.862;30.636;2023-03-31T07:07:19;13.93;;;8.20;;
43325;SDS011;28920;59.862;30.636;2023-03-31T07:09:46;14.93;;;8.60;;
43325;SDS011;28920;59.862;30.636;2023-03-31T07:12:13;12.55;;;6.85;;
43325;SDS011;28920;59.862;30.636;2023-03-31T07:14:39;16.15;;;9.63;;
43325;SDS011;28920;59.862;30.636;2023-03-31T07:17:06;13.43;;;8.18;;
43325;SDS011;28920;59.862;30.636;2023-03-31T07:19:33;14.18;;;9.15;;
43325;SDS011;28920;59.862;30.636;2023-03-31T07:22:02;13.80;;;8.70;;
43325;SDS011;28920;59.862;30.636;2023-03-31T07:24:29;13.45;;;7.43;;
43325;SDS011;28920;59.862;30.636;2023-03-31T07:26:56;11.20;;;6.60;;
43325;SDS011;28920;59.862;30.636;2023-03-31T07:29:22;14.40;;;7.15;;
43325;SDS011;28920;59.862;30.636;2023-03-31T07:31:49;15.60;;;8.13;;
43325;SDS011;28920;59.862;30.636;2023-03-31T07:34:17;11.80;;;6.95;;
43325;SDS011;28920;59.862;30.636;2023-03-31T07:36:44;13.27;;;8.35;;
43325;SDS011;28920;59.862;30.636;2023-03-31T07:39:11;13.10;;;8.70;;
43325;SDS011;28920;59.862;30.636;2023-03-31T07:41:38;16.48;;;9.63;;
43325;SDS011;28920;59.862;30.636;2023-03-31T07:44:04;13.15;;;8.63;;
43325;SDS011;28920;59.862;30.636;2023-03-31T07:46:31;14.38;;;9.05;;
43325;SDS011;28920;59.862;30.636;2023-03-31T07:48:58;20.00;;;9.77;;
43325;SDS011;28920;59.862;30.636;2023-03-31T07:51:26;16.55;;;9.88;;
43325;SDS011;28920;59.862;30.636;2023-03-31T07:53:54;14.95;;;10.20;;
43325;SDS011;28920;59.862;30.636;2023-03-31T07:56:21;17.37;;;10.73;;
43325;SDS011;28920;59.862;30.636;2023-03-31T07:58:48;13.62;;;8.18;;
43325;SDS011;28920;59.862;30.636;2023-03-31T08:01:16;16.87;;;7.85;;
43325;SDS011;28920;59.862;30.636;2023-03-31T08:03:44;13.62;;;8.57;;
43325;SDS011;28920;59.862;30.636;2023-03-31T08:06:11;13.32;;;8.35;;
43325;SDS011;28920;59.862;30.636;2023-03-31T08:08:38;12.00;;;7.65;;
43325;SDS011;28920;59.862;30.636;2023-03-31T08:11:09;10.68;;;7.07;;
43325;SDS011;28920;59.862;30.636;2023-03-31T08:13:36;13.05;;;7.55;;
43325;SDS011;28920;59.862;30.636;2023-03-31T08:16:02;13.60;;;7.93;;
43325;SDS011;28920;59.862;30.636;2023-03-31T08:18:29;12.35;;;7.35;;
43325;SDS011;28920;59.862;30.636;2023-03-31T08:20:56;13.52;;;7.68;;
43325;SDS011;28920;59.862;30.636;2023-03-31T08:23:22;15.93;;;9.50;;
43325;SDS011;28920;59.862;30.636;2023-03-31T08:25:49;15.77;;;9.75;;
43325;SDS011;28920;59.862;30.636;2023-03-31T08:28:16;17.23;;;10.05;;
43325;SDS011;28920;59.862;30.636;2023-03-31T08:30:43;12.37;;;7.93;;
43325;SDS011;28920;59.862;30.636;2023-03-31T08:33:10;10.68;;;6.37;;
43325;SDS011;28920;59.862;30.636;2023-03-31T08:35:37;10.68;;;6.68;;
43325;SDS011;28920;59.862;30.636;2023-03-31T08:38:04;10.55;;;6.45;;
43325;SDS011;28920;59.862;30.636;2023-03-31T08:40:31;11.77;;;7.35;;
43325;SDS011;28920;59.862;30.636;2023-03-31T08:42:59;10.43;;;7.20;;
43325;SDS011;28920;59.862;30.636;2023-03-31T08:45:29;12.20;;;7.05;;
43325;SDS011;28920;59.862;30.636;2023-03-31T08:47:58;10.95;;;6.68;;
43325;SDS011;28920;59.862;30.636;2023-03-31T08:50:26;13.85;;;7.78;;
43325;SDS011;28920;59.862;30.636;2023-03-31T08:52:55;11.23;;;7.45;;
43325;SDS011;28920;59.862;30.636;2023-03-31T08:55:23;9.38;;;5.62;;
43325;SDS011;28920;59.862;30.636;2023-03-31T08:57:52;8.02;;;5.28;;
43325;SDS011;28920;59.862;30.636;2023-03-31T09:00:19;10.20;;;6.10;;
43325;SDS011;28920;59.862;30.636;2023-03-31T09:02:49;9.85;;;6.85;;
43325;SDS011;28920;59.862;30.636;2023-03-31T09:05:29;9.48;;;5.60;;
43325;SDS011;28920;59.862;30.636;2023-03-31T09:08:02;14.27;;;8.23;;
43325;SDS011;28920;59.862;30.636;2023-03-31T09:10:35;15.93;;;6.55;;
43325;SDS011;28920;59.862;30.636;2023-03-31T09:13:05;8.25;;;5.40;;
43325;SDS011;28920;59.862;30.636;2023-03-31T09:15:36;8.98;;;6.10;;
43325;SDS011;28920;59.862;30.636;2023-03-31T09:18:10;10.20;;;5.75;;
43325;SDS011;28920;59.862;30.636;2023-03-31T09:20:39;10.38;;;6.12;;
43325;SDS011;28920;59.862;30.636;2023-03-31T09:23:10;9.52;;;5.95;;
43325;SDS011;28920;59.862;30.636;2023-03-31T09:25:39;9.35;;;5.87;;
43325;SDS011;28920;59.862;30.636;2023-03-31T09:28:10;9.82;;;5.95;;
43325;SDS011;28920;59.862;30.636;2023-03-31T09:30:39;8.75;;;5.80;;
43325;SDS011;28920;59.862;30.636;2023-03-31T09:33:09;8.10;;;5.62;;
43325;SDS011;28920;59.862;30.636;2023-03-31T09:35:37;12.75;;;7.55;;
43325;SDS011;28920;59.862;30.636;2023-03-31T09:38:03;9.80;;;6.87;;
43325;SDS011;28920;59.862;30.636;2023-03-31T09:40:30;11.15;;;6.45;;
43325;SDS011;28920;59.862;30.636;2023-03-31T09:42:59;11.38;;;6.28;;
43325;SDS011;28920;59.862;30.636;2023-03-31T09:45:26;10.07;;;5.97;;
43325;SDS011;28920;59.862;30.636;2023-03-31T09:47:53;9.68;;;5.93;;
43325;SDS011;28920;59.862;30.636;2023-03-31T09:50:21;12.20;;;7.37;;
43325;SDS011;28920;59.862;30.636;2023-03-31T09:52:49;12.60;;;7.87;;
43325;SDS011;28920;59.862;30.636;2023-03-31T09:55:17;8.95;;;5.90;;
43325;SDS011;28920;59.862;30.636;2023-03-31T09:57:45;8.82;;;6.05;;
43325;SDS011;28920;59.862;30.636;2023-03-31T10:00:16;6.93;;;5.12;;
43325;SDS011;28920;59.862;30.636;2023-03-31T10:02:44;8.18;;;4.78;;
43325;SDS011;28920;59.862;30.636;2023-03-31T10:05:30;9.88;;;5.03;;
43325;SDS011;28920;59.862;30.636;2023-03-31T10:08:17;7.40;;;5.35;;
43325;SDS011;28920;59.862;30.636;2023-03-31T10:10:45;11.05;;;6.57;;
43325;SDS011;28920;59.862;30.636;2023-03-31T10:13:15;7.03;;;4.95;;
43325;SDS011;28920;59.862;30.636;2023-03-31T10:15:42;9.85;;;6.05;;
43325;SDS011;28920;59.862;30.636;2023-03-31T10:18:11;8.32;;;5.40;;
43325;SDS011;28920;59.862;30.636;2023-03-31T10:20:42;7.30;;;4.53;;
43325;SDS011;28920;59.862;30.636;2023-03-31T10:23:14;8.27;;;5.20;;
43325;SDS011;28920;59.862;30.636;2023-03-31T10:25:41;9.32;;;5.30;;
43325;SDS011;28920;59.862;30.636;2023-03-31T10:28:09;8.75;;;4.78;;
43325;SDS011;28920;59.862;30.636;2023-03-31T10:30:37;7.22;;;5.90;;
43325;SDS011;28920;59.862;30.636;2023-03-31T10:33:05;7.35;;;5.22;;
43325;SDS011;28920;59.862;30.636;2023-03-31T10:35:35;10.88;;;6.22;;
43325;SDS011;28920;59.862;30.636;2023-03-31T10:38:03;9.48;;;5.55;;
43325;SDS011;28920;59.862;30.636;2023-03-31T10:40:31;7.60;;;4.97;;
43325;SDS011;28920;59.862;30.636;2023-03-31T10:43:00;11.32;;;6.90;;
43325;SDS011;28920;59.862;30.636;2023-03-31T10:45:28;9.88;;;6.32;;
43325;SDS011;28920;59.862;30.636;2023-03-31T10:47:56;9.48;;;6.03;;
43325;SDS011;28920;59.862;30.636;2023-03-31T10:50:25;8.00;;;4.97;;
43325;SDS011;28920;59.862;30.636;2023-03-31T10:52:52;9.80;;;6.37;;
43325;SDS011;28920;59.862;30.636;2023-03-31T10:55:28;9.63;;;5.60;;
43325;SDS011;28920;59.862;30.636;2023-03-31T10:57:58;7.00;;;5.10;;
43325;SDS011;28920;59.862;30.636;2023-03-31T11:00:27;7.87;;;5.25;;
43325;SDS011;28920;59.862;30.636;2023-03-31T11:05:38;7.32;;;5.68;;
43325;SDS011;28920;59.862;30.636;2023-03-31T11:08:16;7.62;;;4.95;;
43325;SDS011;28920;59.862;30.636;2023-03-31T11:10:52;8.65;;;5.47;;
43325;SDS011;28920;59.862;30.636;2023-03-31T11:13:24;8.70;;;5.90;;
43325;SDS011;28920;59.862;30.636;2023-03-31T11:15:53;10.40;;;6.78;;
43325;SDS011;28920;59.862;30.636;2023-03-31T11:18:27;8.30;;;5.70;;
43325;SDS011;28920;59.862;30.636;2023-03-31T11:21:00;8.07;;;4.43;;
43325;SDS011;28920;59.862;30.636;2023-03-31T11:23:34;7.43;;;5.22;;
43325;SDS011;28920;59.862;30.636;2023-03-31T11:26:08;10.20;;;5.22;;
43325;SDS011;28920;59.862;30.636;2023-03-31T11:28:49;7.15;;;5.15;;
43325;SDS011;28920;59.862;30.636;2023-03-31T11:33:50;6.12;;;4.32;;
43325;SDS011;28920;59.862;30.636;2023-03-31T11:36:24;9.25;;;5.47;;
43325;SDS011;28920;59.862;30.636;2023-03-31T11:38:56;9.00;;;3.00;;
43325;SDS011;28920;59.862;30.636;2023-03-31T11:41:29;7.12;;;4.75;;
43325;SDS011;28920;59.862;30.636;2023-03-31T11:43:58;7.20;;;3.45;;
43325;SDS011;28920;59.862;30.636;2023-03-31T11:46:31;8.63;;;5.45;;
43325;SDS011;28920;59.862;30.636;2023-03-31T11:49:01;6.28;;;4.68;;
43325;SDS011;28920;59.862;30.636;2023-03-31T11:51:29;7.03;;;5.45;;
43325;SDS011;28920;59.862;30.636;2023-03-31T11:53:58;7.22;;;4.62;;
43325;SDS011;28920;59.862;30.636;2023-03-31T11:56:28;9.20;;;6.20;;
43325;SDS011;28920;59.862;30.636;2023-03-31T11:58:57;10.15;;;6.82;;
43325;SDS011;28920;59.862;30.636;2023-03-31T12:01:27;7.03;;;4.90;;
43325;SDS011;28920;59.862;30.636;2023-03-31T12:03:56;8.75;;;5.65;;
43325;SDS011;28920;59.862;30.636;2023-03-31T12:06:25;8.45;;;5.60;;
43325;SDS011;28920;59.862;30.636;2023-03-31T12:08:56;9.02;;;5.80;;
43325;SDS011;28920;59.862;30.636;2023-03-31T12:11:28;16.17;;;9.45;;
43325;SDS011;28920;59.862;30.636;2023-03-31T12:13:58;9.93;;;6.20;;
43325;SDS011;28920;59.862;30.636;2023-03-31T12:16:28;6.80;;;4.95;;
43325;SDS011;28920;59.862;30.636;2023-03-31T12:19:00;8.00;;;5.55;;
43325;SDS011;28920;59.862;30.636;2023-03-31T12:21:28;10.13;;;5.53;;
43325;SDS011;28920;59.862;30.636;2023-03-31T12:23:54;9.38;;;5.20;;
43325;SDS011;28920;59.862;30.636;2023-03-31T12:26:26;8.10;;;5.50;;
43325;SDS011;28920;59.862;30.636;2023-03-31T12:28:54;9.05;;;5.55;;
43325;SDS011;28920;59.862;30.636;2023-03-31T12:31:23;7.82;;;5.45;;
43325;SDS011;28920;59.862;30.636;2023-03-31T12:33:53;9.23;;;5.75;;
43325;SDS011;28920;59.862;30.636;2023-03-31T12:36:23;10.10;;;5.60;;
43325;SDS011;28920;59.862;30.636;2023-03-31T12:38:56;10.93;;;6.32;;
43325;SDS011;28920;59.862;30.636;2023-03-31T12:41:25;8.02;;;5.20;;
43325;SDS011;28920;59.862;30.636;2023-03-31T12:43:58;8.45;;;5.40;;
43325;SDS011;28920;59.862;30.636;2023-03-31T12:46:32;7.68;;;5.30;;
43325;SDS011;28920;59.862;30.636;2023-03-31T12:49:06;8.32;;;5.53;;
43325;SDS011;28920;59.862;30.636;2023-03-31T12:51:38;10.63;;;6.05;;
43325;SDS011;28920;59.862;30.636;2023-03-31T12:54:13;7.60;;;4.65;;
43325;SDS011;28920;59.862;30.636;2023-03-31T12:57:03;8.90;;;5.85;;
43325;SDS011;28920;59.862;30.636;2023-03-31T12:59:31;8.10;;;5.55;;
43325;SDS011;28920;59.862;30.636;2023-03-31T13:02:16;11.80;;;7.30;;
43325;SDS011;28920;59.862;30.636;2023-03-31T13:04:45;9.70;;;5.60;;
43325;SDS011;28920;59.862;30.636;2023-03-31T13:07:32;11.77;;;6.05;;
43325;SDS011;28920;59.862;30.636;2023-03-31T13:10:22;8.18;;;5.80;;
43325;SDS011;28920;59.862;30.636;2023-03-31T13:12:55;7.00;;;5.70;;
43325;SDS011;28920;59.862;30.636;2023-03-31T13:15:24;7.05;;;5.43;;
43325;SDS011;28920;59.862;30.636;2023-03-31T13:17:54;9.63;;;5.57;;
43325;SDS011;28920;59.862;30.636;2023-03-31T13:20:31;6.72;;;4.95;;
43325;SDS011;28920;59.862;30.636;2023-03-31T13:22:59;8.50;;;5.97;;
43325;SDS011;28920;59.862;30.636;2023-03-31T13:28:16;7.22;;;5.22;;
43325;SDS011;28920;59.862;30.636;2023-03-31T13:30:50;7.87;;;5.82;;
43325;SDS011;28920;59.862;30.636;2023-03-31T13:33:22;7.28;;;5.37;;
43325;SDS011;28920;59.862;30.636;2023-03-31T13:35:50;8.35;;;5.40;;
43325;SDS011;28920;59.862;30.636;2023-03-31T13:38:22;9.32;;;6.85;;
43325;SDS011;28920;59.862;30.636;2023-03-31T13:40:54;9.00;;;4.93;;
43325;SDS011;28920;59.862;30.636;2023-03-31T13:46:24;8.65;;;6.43;;
43325;SDS011;28920;59.862;30.636;2023-03-31T13:48:58;8.70;;;5.93;;
43325;SDS011;28920;59.862;30.636;2023-03-31T13:51:33;7.60;;;5.40;;
43325;SDS011;28920;59.862;30.636;2023-03-31T13:54:17;7.70;;;4.50;;
43325;SDS011;28920;59.862;30.636;2023-03-31T13:56:51;9.27;;;4.85;;
43325;SDS011;28920;59.862;30.636;2023-03-31T14:02:11;9.52;;;5.95;;
43325;SDS011;28920;59.862;30.636;2023-03-31T14:04:54;8.13;;;5.25;;
43325;SDS011;28920;59.862;30.636;2023-03-31T14:07:27;8.48;;;5.28;;
43325;SDS011;28920;59.862;30.636;2023-03-31T14:09:54;17.10;;;6.00;;
43325;SDS011;28920;59.862;30.636;2023-03-31T14:12:29;7.03;;;4.60;;
43325;SDS011;28920;59.862;30.636;2023-03-31T14:14:56;7.85;;;5.47;;
43325;SDS011;28920;59.862;30.636;2023-03-31T14:17:25;7.82;;;5.05;;
43325;SDS011;28920;59.862;30.636;2023-03-31T14:20:11;9.13;;;5.75;;
43325;SDS011;28920;59.862;30.636;2023-03-31T14:22:44;10.82;;;6.15;;
43325;SDS011;28920;59.862;30.636;2023-03-31T14:25:12;8.45;;;5.87;;
43325;SDS011;28920;59.862;30.636;2023-03-31T14:27:45;10.80;;;6.65;;
43325;SDS011;28920;59.862;30.636;2023-03-31T14:32:41;9.77;;;5.55;;
43325;SDS011;28920;59.862;30.636;2023-03-31T14:35:23;10.85;;;6.65;;
43325;SDS011;28920;59.862;30.636;2023-03-31T14:37:53;11.60;;;7.22;;
43325;SDS011;28920;59.862;30.636;2023-03-31T14:40:21;9.95;;;5.80;;
43325;SDS011;28920;59.862;30.636;2023-03-31T14:42:48;8.50;;;5.93;;
43325;SDS011;28920;59.862;30.636;2023-03-31T14:45:16;15.25;;;8.88;;
43325;SDS011;28920;59.862;30.636;2023-03-31T14:47:52;13.05;;;8.90;;
43325;SDS011;28920;59.862;30.636;2023-03-31T14:50:19;13.70;;;7.25;;
43325;SDS011;28920;59.862;30.636;2023-03-31T14:52:46;10.63;;;6.78;;
43325;SDS011;28920;59.862;30.636;2023-03-31T14:55:13;14.30;;;8.57;;
43325;SDS011;28920;59.862;30.636;2023-03-31T14:57:41;15.80;;;9.18;;